Aérodrome :
LOGIN :

S'inscrire | Disclaimer

   EN    FR    IT 

 










Légende :    VFR   VFR Marginal   IFR   IFR Intensif   IFR Très Intensif
Visi : 
Plafond : 
>= 8 km
>= 3000ft
5 à 8 km
1000 à 3000 ft
1500m à 5 km
500 à 1000 ft
800 à 1500m
200 à 500 ft
< 800m
< 200 ft
Symboles :   Orages  Brouillard  Fortes neiges  Fortes précipitations  Vent > 20 kt
SIGMETs :   Divers  Orages  Givrage  Turbulence  Onde Orograph.  Cendres Volcan.







- Altitude de l'aérodrome : 82 ft
- Code IATA : ALG


DAAG - Alger Houari Boumedienne

DERNIER METAR :
  • 181300Z 08021KT 8000 FEW026 SCT050 BKN083 17/11 Q1020

METARs EXPIRÉS :
  • 181230Z 09022KT 8000 FEW026 SCT050 17/11 Q1020
  • 181200Z 07022KT 8000 FEW026 SCT046 18/11 Q1020
  • 181130Z 07020KT 8000 FEW026 BKN046 17/11 Q1020
  • 181100Z 08019KT 8000 FEW026 BKN043 17/11 Q1020
  • 181030Z 08017KT 8000 FEW020 BKN043 17/11 Q1020

TAF AMD TAF DAAG
Valide du 18 à 12h jusqu'au 19 à 12h UTC


181220Z 1812/1912 05014KT 9999 FEW026 SCT046
TEMPO 1812/1818 06015G25KT
BECMG 1820/1823 30010KT
BECMG 1906/1910 06010KT
PROB30
TEMPO 1906/1912 FEW023TCU
Pas de NOTAMs connus pour ce terrain.



MET'MAP, la Météo Aéronautique d'un coup d'oeil ! - Copyright ORBIFLY Décembre 2007 - Disclaimer

ORBIFLY MET'MAP TEAM :

Programmation & Développement : Alexandra Zaïnal
Conception & Développement : Baudouin d'Aumeries
Co-Programmation & Développement : Marc-Olivier Méhu
Soutien technique & logistique : Manuel Goepfert

Contact : metmap@orbifly.com




SOURCES & CREDITS :

   NOAA